sensor_id;sensor_type;location;lat;lon;timestamp;P1;durP1;ratioP1;P2;durP2;ratioP2
17753;SDS011;8999;48.994;9.150;2022-12-07T00:01:28;11.87;;;6.87;;
17753;SDS011;8999;48.994;9.150;2022-12-07T00:04:01;10.33;;;7.23;;
17753;SDS011;8999;48.994;9.150;2022-12-07T00:06:35;9.60;;;6.60;;
17753;SDS011;8999;48.994;9.150;2022-12-07T00:09:10;12.50;;;7.00;;
17753;SDS011;8999;48.994;9.150;2022-12-07T00:11:44;10.60;;;7.60;;
17753;SDS011;8999;48.994;9.150;2022-12-07T00:14:16;9.93;;;7.10;;
17753;SDS011;8999;48.994;9.150;2022-12-07T00:16:49;10.90;;;7.33;;
17753;SDS011;8999;48.994;9.150;2022-12-07T00:19:20;9.87;;;7.07;;
17753;SDS011;8999;48.994;9.150;2022-12-07T00:21:52;9.67;;;7.23;;
17753;SDS011;8999;48.994;9.150;2022-12-07T00:24:24;12.17;;;8.33;;
17753;SDS011;8999;48.994;9.150;2022-12-07T00:26:57;11.20;;;8.47;;
17753;SDS011;8999;48.994;9.150;2022-12-07T00:29:28;11.20;;;8.13;;
17753;SDS011;8999;48.994;9.150;2022-12-07T00:32:00;11.43;;;8.27;;
17753;SDS011;8999;48.994;9.150;2022-12-07T00:34:31;11.87;;;8.00;;
17753;SDS011;8999;48.994;9.150;2022-12-07T00:37:06;11.37;;;7.93;;
17753;SDS011;8999;48.994;9.150;2022-12-07T00:39:37;11.37;;;8.07;;
17753;SDS011;8999;48.994;9.150;2022-12-07T00:42:10;10.00;;;7.20;;
17753;SDS011;8999;48.994;9.150;2022-12-07T00:44:42;13.30;;;8.57;;
17753;SDS011;8999;48.994;9.150;2022-12-07T00:47:14;12.17;;;8.00;;
17753;SDS011;8999;48.994;9.150;2022-12-07T00:49:45;12.20;;;8.43;;
17753;SDS011;8999;48.994;9.150;2022-12-07T00:52:17;12.20;;;8.63;;
17753;SDS011;8999;48.994;9.150;2022-12-07T00:54:48;13.93;;;8.80;;
17753;SDS011;8999;48.994;9.150;2022-12-07T00:57:21;13.30;;;7.77;;
17753;SDS011;8999;48.994;9.150;2022-12-07T00:59:53;13.90;;;8.90;;
17753;SDS011;8999;48.994;9.150;2022-12-07T01:02:27;11.10;;;8.23;;
17753;SDS011;8999;48.994;9.150;2022-12-07T01:04:59;13.50;;;7.83;;
17753;SDS011;8999;48.994;9.150;2022-12-07T01:07:30;12.37;;;8.43;;
17753;SDS011;8999;48.994;9.150;2022-12-07T01:10:02;12.93;;;8.63;;
17753;SDS011;8999;48.994;9.150;2022-12-07T01:12:35;10.53;;;7.43;;
17753;SDS011;8999;48.994;9.150;2022-12-07T01:15:07;9.33;;;7.13;;
17753;SDS011;8999;48.994;9.150;2022-12-07T01:17:39;10.70;;;7.10;;
17753;SDS011;8999;48.994;9.150;2022-12-07T01:20:11;11.63;;;7.93;;
17753;SDS011;8999;48.994;9.150;2022-12-07T01:22:44;13.57;;;8.13;;
17753;SDS011;8999;48.994;9.150;2022-12-07T01:25:15;11.33;;;8.20;;
17753;SDS011;8999;48.994;9.150;2022-12-07T01:27:48;14.60;;;8.20;;
17753;SDS011;8999;48.994;9.150;2022-12-07T01:30:20;12.00;;;8.23;;
17753;SDS011;8999;48.994;9.150;2022-12-07T01:32:51;10.93;;;7.97;;
17753;SDS011;8999;48.994;9.150;2022-12-07T01:35:23;12.07;;;8.23;;
17753;SDS011;8999;48.994;9.150;2022-12-07T01:37:55;13.80;;;8.37;;
17753;SDS011;8999;48.994;9.150;2022-12-07T01:40:26;11.70;;;8.23;;
17753;SDS011;8999;48.994;9.150;2022-12-07T01:42:59;12.93;;;8.30;;
17753;SDS011;8999;48.994;9.150;2022-12-07T01:45:36;13.10;;;9.03;;
17753;SDS011;8999;48.994;9.150;2022-12-07T01:48:09;14.53;;;9.10;;
17753;SDS011;8999;48.994;9.150;2022-12-07T01:50:42;12.03;;;8.27;;
17753;SDS011;8999;48.994;9.150;2022-12-07T01:53:15;12.03;;;8.27;;
17753;SDS011;8999;48.994;9.150;2022-12-07T01:55:49;12.47;;;8.47;;
17753;SDS011;8999;48.994;9.150;2022-12-07T01:58:24;12.90;;;7.57;;
17753;SDS011;8999;48.994;9.150;2022-12-07T02:00:56;11.23;;;8.17;;
17753;SDS011;8999;48.994;9.150;2022-12-07T02:03:29;12.63;;;8.60;;
17753;SDS011;8999;48.994;9.150;2022-12-07T02:06:04;13.27;;;8.37;;
17753;SDS011;8999;48.994;9.150;2022-12-07T02:08:37;14.63;;;9.53;;
17753;SDS011;8999;48.994;9.150;2022-12-07T02:11:09;11.37;;;8.47;;
17753;SDS011;8999;48.994;9.150;2022-12-07T02:13:42;13.67;;;8.00;;
17753;SDS011;8999;48.994;9.150;2022-12-07T02:16:18;13.60;;;8.83;;
17753;SDS011;8999;48.994;9.150;2022-12-07T02:18:58;15.27;;;8.10;;
17753;SDS011;8999;48.994;9.150;2022-12-07T02:21:37;14.47;;;7.87;;
17753;SDS011;8999;48.994;9.150;2022-12-07T02:24:15;13.23;;;8.17;;
17753;SDS011;8999;48.994;9.150;2022-12-07T02:27:01;11.70;;;8.40;;
17753;SDS011;8999;48.994;9.150;2022-12-07T02:29:43;14.00;;;8.73;;
17753;SDS011;8999;48.994;9.150;2022-12-07T02:32:19;13.87;;;8.80;;
17753;SDS011;8999;48.994;9.150;2022-12-07T02:34:55;15.40;;;9.00;;
17753;SDS011;8999;48.994;9.150;2022-12-07T02:37:32;13.07;;;9.17;;
17753;SDS011;8999;48.994;9.150;2022-12-07T02:40:08;13.50;;;9.43;;
17753;SDS011;8999;48.994;9.150;2022-12-07T02:42:45;12.63;;;8.93;;
17753;SDS011;8999;48.994;9.150;2022-12-07T02:45:20;14.53;;;9.07;;
17753;SDS011;8999;48.994;9.150;2022-12-07T02:47:55;13.73;;;8.97;;
17753;SDS011;8999;48.994;9.150;2022-12-07T02:50:28;13.83;;;8.77;;
17753;SDS011;8999;48.994;9.150;2022-12-07T02:53:00;13.97;;;8.87;;
17753;SDS011;8999;48.994;9.150;2022-12-07T02:55:34;13.93;;;8.83;;
17753;SDS011;8999;48.994;9.150;2022-12-07T02:58:13;14.97;;;9.67;;
17753;SDS011;8999;48.994;9.150;2022-12-07T03:00:54;13.70;;;9.30;;
17753;SDS011;8999;48.994;9.150;2022-12-07T03:03:30;14.00;;;9.67;;
17753;SDS011;8999;48.994;9.150;2022-12-07T03:06:05;12.80;;;8.20;;
17753;SDS011;8999;48.994;9.150;2022-12-07T03:08:44;15.50;;;9.30;;
17753;SDS011;8999;48.994;9.150;2022-12-07T03:11:22;12.43;;;9.33;;
17753;SDS011;8999;48.994;9.150;2022-12-07T03:13:59;15.87;;;9.80;;
17753;SDS011;8999;48.994;9.150;2022-12-07T03:16:35;13.43;;;9.43;;
17753;SDS011;8999;48.994;9.150;2022-12-07T03:19:09;21.43;;;9.27;;
17753;SDS011;8999;48.994;9.150;2022-12-07T03:21:44;16.93;;;9.70;;
17753;SDS011;8999;48.994;9.150;2022-12-07T03:24:19;16.00;;;10.20;;
17753;SDS011;8999;48.994;9.150;2022-12-07T03:26:53;13.27;;;8.90;;
17753;SDS011;8999;48.994;9.150;2022-12-07T03:29:29;14.83;;;9.07;;
17753;SDS011;8999;48.994;9.150;2022-12-07T03:32:05;15.40;;;9.80;;
17753;SDS011;8999;48.994;9.150;2022-12-07T03:34:38;15.03;;;9.93;;
17753;SDS011;8999;48.994;9.150;2022-12-07T03:37:14;16.13;;;9.60;;
17753;SDS011;8999;48.994;9.150;2022-12-07T03:39:50;15.10;;;9.63;;
17753;SDS011;8999;48.994;9.150;2022-12-07T03:42:25;15.47;;;9.67;;
17753;SDS011;8999;48.994;9.150;2022-12-07T03:44:57;15.13;;;9.77;;
17753;SDS011;8999;48.994;9.150;2022-12-07T03:47:31;15.10;;;9.80;;
17753;SDS011;8999;48.994;9.150;2022-12-07T03:50:06;15.13;;;9.83;;
17753;SDS011;8999;48.994;9.150;2022-12-07T03:52:39;13.97;;;9.57;;
17753;SDS011;8999;48.994;9.150;2022-12-07T03:55:14;14.43;;;10.10;;
17753;SDS011;8999;48.994;9.150;2022-12-07T03:57:48;14.63;;;9.57;;
17753;SDS011;8999;48.994;9.150;2022-12-07T04:00:21;13.77;;;10.07;;
17753;SDS011;8999;48.994;9.150;2022-12-07T04:02:54;17.63;;;10.33;;
17753;SDS011;8999;48.994;9.150;2022-12-07T04:05:26;15.07;;;10.03;;
17753;SDS011;8999;48.994;9.150;2022-12-07T04:07:58;52.93;;;28.80;;
17753;SDS011;8999;48.994;9.150;2022-12-07T04:10:30;18.23;;;11.33;;
17753;SDS011;8999;48.994;9.150;2022-12-07T04:13:04;15.50;;;10.00;;
17753;SDS011;8999;48.994;9.150;2022-12-07T04:15:36;13.03;;;9.10;;
17753;SDS011;8999;48.994;9.150;2022-12-07T04:18:09;12.87;;;9.10;;
17753;SDS011;8999;48.994;9.150;2022-12-07T04:20:40;13.17;;;9.53;;
17753;SDS011;8999;48.994;9.150;2022-12-07T04:23:12;15.40;;;9.90;;
17753;SDS011;8999;48.994;9.150;2022-12-07T04:25:43;15.30;;;9.63;;
17753;SDS011;8999;48.994;9.150;2022-12-07T04:28:15;17.97;;;10.27;;
17753;SDS011;8999;48.994;9.150;2022-12-07T04:30:47;15.37;;;10.43;;
17753;SDS011;8999;48.994;9.150;2022-12-07T04:33:19;15.17;;;10.50;;
17753;SDS011;8999;48.994;9.150;2022-12-07T04:35:51;14.37;;;10.43;;
17753;SDS011;8999;48.994;9.150;2022-12-07T04:38:23;14.03;;;10.23;;
17753;SDS011;8999;48.994;9.150;2022-12-07T04:40:54;14.53;;;10.10;;
17753;SDS011;8999;48.994;9.150;2022-12-07T04:43:26;27.03;;;15.37;;
17753;SDS011;8999;48.994;9.150;2022-12-07T04:45:57;17.30;;;9.77;;
17753;SDS011;8999;48.994;9.150;2022-12-07T04:48:30;15.07;;;9.07;;
17753;SDS011;8999;48.994;9.150;2022-12-07T04:51:02;22.27;;;12.10;;
17753;SDS011;8999;48.994;9.150;2022-12-07T04:53:34;18.27;;;10.33;;
17753;SDS011;8999;48.994;9.150;2022-12-07T04:56:06;18.13;;;11.53;;
17753;SDS011;8999;48.994;9.150;2022-12-07T04:58:38;16.80;;;10.87;;
17753;SDS011;8999;48.994;9.150;2022-12-07T05:01:09;17.20;;;10.63;;
17753;SDS011;8999;48.994;9.150;2022-12-07T05:03:42;16.53;;;10.00;;
17753;SDS011;8999;48.994;9.150;2022-12-07T05:06:14;15.27;;;10.53;;
17753;SDS011;8999;48.994;9.150;2022-12-07T05:08:46;20.27;;;11.20;;
17753;SDS011;8999;48.994;9.150;2022-12-07T05:11:18;16.93;;;10.70;;
17753;SDS011;8999;48.994;9.150;2022-12-07T05:14:04;18.50;;;11.23;;
17753;SDS011;8999;48.994;9.150;2022-12-07T05:16:37;16.93;;;9.73;;
17753;SDS011;8999;48.994;9.150;2022-12-07T05:19:11;14.10;;;8.83;;
17753;SDS011;8999;48.994;9.150;2022-12-07T05:21:42;15.93;;;9.57;;
17753;SDS011;8999;48.994;9.150;2022-12-07T05:24:15;15.63;;;9.63;;
17753;SDS011;8999;48.994;9.150;2022-12-07T05:26:47;17.17;;;10.23;;
17753;SDS011;8999;48.994;9.150;2022-12-07T05:29:18;13.67;;;9.37;;
17753;SDS011;8999;48.994;9.150;2022-12-07T05:31:50;14.23;;;10.57;;
17753;SDS011;8999;48.994;9.150;2022-12-07T05:34:23;16.07;;;9.73;;
17753;SDS011;8999;48.994;9.150;2022-12-07T05:36:54;15.37;;;9.93;;
17753;SDS011;8999;48.994;9.150;2022-12-07T05:39:26;18.00;;;10.17;;
17753;SDS011;8999;48.994;9.150;2022-12-07T05:41:58;16.93;;;10.23;;
17753;SDS011;8999;48.994;9.150;2022-12-07T05:44:45;14.10;;;9.37;;
17753;SDS011;8999;48.994;9.150;2022-12-07T05:47:17;15.67;;;10.07;;
17753;SDS011;8999;48.994;9.150;2022-12-07T05:49:50;15.60;;;9.87;;
17753;SDS011;8999;48.994;9.150;2022-12-07T05:52:22;12.83;;;9.33;;
17753;SDS011;8999;48.994;9.150;2022-12-07T05:54:53;13.03;;;8.93;;
17753;SDS011;8999;48.994;9.150;2022-12-07T05:57:25;15.13;;;9.17;;
17753;SDS011;8999;48.994;9.150;2022-12-07T05:59:56;14.23;;;9.10;;
17753;SDS011;8999;48.994;9.150;2022-12-07T06:02:27;14.40;;;9.83;;
17753;SDS011;8999;48.994;9.150;2022-12-07T06:05:00;14.03;;;9.47;;
17753;SDS011;8999;48.994;9.150;2022-12-07T06:07:32;14.47;;;9.20;;
17753;SDS011;8999;48.994;9.150;2022-12-07T06:10:04;13.07;;;9.03;;
17753;SDS011;8999;48.994;9.150;2022-12-07T06:12:36;13.93;;;9.00;;
17753;SDS011;8999;48.994;9.150;2022-12-07T06:15:09;13.30;;;9.27;;
17753;SDS011;8999;48.994;9.150;2022-12-07T06:17:43;15.03;;;9.73;;
17753;SDS011;8999;48.994;9.150;2022-12-07T06:20:16;14.47;;;10.07;;
17753;SDS011;8999;48.994;9.150;2022-12-07T06:22:47;16.20;;;9.30;;
17753;SDS011;8999;48.994;9.150;2022-12-07T06:25:19;15.87;;;9.87;;
17753;SDS011;8999;48.994;9.150;2022-12-07T06:27:50;15.77;;;9.87;;
17753;SDS011;8999;48.994;9.150;2022-12-07T06:30:22;14.90;;;9.60;;
17753;SDS011;8999;48.994;9.150;2022-12-07T06:32:54;14.93;;;9.23;;
17753;SDS011;8999;48.994;9.150;2022-12-07T06:35:27;16.53;;;9.77;;
17753;SDS011;8999;48.994;9.150;2022-12-07T06:37:58;17.30;;;9.53;;
17753;SDS011;8999;48.994;9.150;2022-12-07T06:40:30;12.57;;;9.03;;
17753;SDS011;8999;48.994;9.150;2022-12-07T06:43:02;12.87;;;9.10;;
17753;SDS011;8999;48.994;9.150;2022-12-07T06:45:33;13.50;;;9.33;;
17753;SDS011;8999;48.994;9.150;2022-12-07T06:48:05;13.13;;;9.30;;
17753;SDS011;8999;48.994;9.150;2022-12-07T06:50:38;14.27;;;8.97;;
17753;SDS011;8999;48.994;9.150;2022-12-07T06:53:10;13.60;;;8.87;;
17753;SDS011;8999;48.994;9.150;2022-12-07T06:55:42;15.33;;;8.93;;
17753;SDS011;8999;48.994;9.150;2022-12-07T06:58:14;16.50;;;9.67;;
17753;SDS011;8999;48.994;9.150;2022-12-07T07:00:45;14.90;;;9.40;;
17753;SDS011;8999;48.994;9.150;2022-12-07T07:03:19;15.00;;;9.37;;
17753;SDS011;8999;48.994;9.150;2022-12-07T07:05:52;14.80;;;9.43;;
17753;SDS011;8999;48.994;9.150;2022-12-07T07:08:23;12.10;;;8.47;;
17753;SDS011;8999;48.994;9.150;2022-12-07T07:10:55;18.37;;;10.37;;
17753;SDS011;8999;48.994;9.150;2022-12-07T07:13:27;15.97;;;8.93;;
17753;SDS011;8999;48.994;9.150;2022-12-07T07:15:59;13.07;;;8.97;;
17753;SDS011;8999;48.994;9.150;2022-12-07T07:18:30;13.00;;;8.63;;
17753;SDS011;8999;48.994;9.150;2022-12-07T07:21:04;14.20;;;8.50;;
17753;SDS011;8999;48.994;9.150;2022-12-07T07:23:36;14.50;;;8.97;;
17753;SDS011;8999;48.994;9.150;2022-12-07T07:26:07;13.40;;;8.70;;
17753;SDS011;8999;48.994;9.150;2022-12-07T07:28:39;11.53;;;7.87;;
17753;SDS011;8999;48.994;9.150;2022-12-07T07:31:10;12.57;;;8.20;;
17753;SDS011;8999;48.994;9.150;2022-12-07T07:33:42;12.27;;;7.73;;
17753;SDS011;8999;48.994;9.150;2022-12-07T07:36:15;13.13;;;8.43;;
17753;SDS011;8999;48.994;9.150;2022-12-07T07:38:47;13.07;;;8.77;;
17753;SDS011;8999;48.994;9.150;2022-12-07T07:41:18;11.60;;;7.87;;
17753;SDS011;8999;48.994;9.150;2022-12-07T07:43:50;14.67;;;8.40;;
17753;SDS011;8999;48.994;9.150;2022-12-07T07:46:21;13.43;;;8.40;;
17753;SDS011;8999;48.994;9.150;2022-12-07T07:48:53;13.07;;;8.10;;
17753;SDS011;8999;48.994;9.150;2022-12-07T07:51:26;11.30;;;7.77;;
17753;SDS011;8999;48.994;9.150;2022-12-07T07:53:58;11.27;;;7.57;;
17753;SDS011;8999;48.994;9.150;2022-12-07T07:56:29;11.63;;;8.17;;
17753;SDS011;8999;48.994;9.150;2022-12-07T07:59:01;13.00;;;8.03;;
17753;SDS011;8999;48.994;9.150;2022-12-07T08:01:33;11.83;;;7.83;;
17753;SDS011;8999;48.994;9.150;2022-12-07T08:04:05;12.83;;;8.50;;
17753;SDS011;8999;48.994;9.150;2022-12-07T08:06:38;11.93;;;7.43;;
17753;SDS011;8999;48.994;9.150;2022-12-07T08:09:12;10.93;;;7.70;;
17753;SDS011;8999;48.994;9.150;2022-12-07T08:11:44;10.70;;;7.23;;
17753;SDS011;8999;48.994;9.150;2022-12-07T08:14:15;12.30;;;8.53;;
17753;SDS011;8999;48.994;9.150;2022-12-07T08:16:47;15.90;;;9.63;;
17753;SDS011;8999;48.994;9.150;2022-12-07T08:19:19;13.80;;;9.03;;
17753;SDS011;8999;48.994;9.150;2022-12-07T08:21:52;24.20;;;12.23;;
17753;SDS011;8999;48.994;9.150;2022-12-07T08:24:26;16.60;;;10.77;;
17753;SDS011;8999;48.994;9.150;2022-12-07T08:26:58;12.63;;;7.43;;
17753;SDS011;8999;48.994;9.150;2022-12-07T08:29:30;12.03;;;7.60;;
17753;SDS011;8999;48.994;9.150;2022-12-07T08:32:01;11.87;;;6.77;;
17753;SDS011;8999;48.994;9.150;2022-12-07T08:34:34;10.73;;;6.77;;
17753;SDS011;8999;48.994;9.150;2022-12-07T08:37:07;10.53;;;6.77;;
17753;SDS011;8999;48.994;9.150;2022-12-07T08:39:38;10.03;;;6.47;;
17753;SDS011;8999;48.994;9.150;2022-12-07T08:42:10;9.67;;;6.30;;
17753;SDS011;8999;48.994;9.150;2022-12-07T08:44:42;9.73;;;6.37;;
17753;SDS011;8999;48.994;9.150;2022-12-07T08:47:13;10.43;;;6.87;;
17753;SDS011;8999;48.994;9.150;2022-12-07T08:49:46;11.57;;;7.00;;
17753;SDS011;8999;48.994;9.150;2022-12-07T08:52:20;11.00;;;6.60;;
17753;SDS011;8999;48.994;9.150;2022-12-07T08:54:52;10.07;;;6.03;;
17753;SDS011;8999;48.994;9.150;2022-12-07T08:57:24;11.00;;;6.23;;
17753;SDS011;8999;48.994;9.150;2022-12-07T08:59:56;11.80;;;6.60;;
17753;SDS011;8999;48.994;9.150;2022-12-07T09:02:28;11.43;;;6.50;;
17753;SDS011;8999;48.994;9.150;2022-12-07T09:05:01;10.57;;;6.47;;
17753;SDS011;8999;48.994;9.150;2022-12-07T09:07:35;10.43;;;7.00;;
17753;SDS011;8999;48.994;9.150;2022-12-07T09:10:07;10.03;;;6.33;;
17753;SDS011;8999;48.994;9.150;2022-12-07T09:12:39;10.40;;;6.80;;
17753;SDS011;8999;48.994;9.150;2022-12-07T09:15:11;12.10;;;7.53;;
17753;SDS011;8999;48.994;9.150;2022-12-07T09:17:42;11.60;;;7.57;;
17753;SDS011;8999;48.994;9.150;2022-12-07T09:20:14;11.73;;;7.87;;
17753;SDS011;8999;48.994;9.150;2022-12-07T09:22:47;11.10;;;7.10;;
17753;SDS011;8999;48.994;9.150;2022-12-07T09:25:19;12.53;;;7.60;;
17753;SDS011;8999;48.994;9.150;2022-12-07T09:27:55;11.17;;;7.27;;
17753;SDS011;8999;48.994;9.150;2022-12-07T09:30:27;13.13;;;7.87;;
17753;SDS011;8999;48.994;9.150;2022-12-07T09:32:59;11.37;;;6.93;;
17753;SDS011;8999;48.994;9.150;2022-12-07T09:35:31;11.47;;;6.93;;
17753;SDS011;8999;48.994;9.150;2022-12-07T09:38:04;11.27;;;7.00;;
17753;SDS011;8999;48.994;9.150;2022-12-07T09:40:35;9.97;;;7.10;;
17753;SDS011;8999;48.994;9.150;2022-12-07T09:43:11;9.63;;;6.70;;
17753;SDS011;8999;48.994;9.150;2022-12-07T09:45:43;10.07;;;6.00;;
17753;SDS011;8999;48.994;9.150;2022-12-07T09:48:16;8.80;;;6.30;;
17753;SDS011;8999;48.994;9.150;2022-12-07T09:50:49;8.87;;;5.47;;
17753;SDS011;8999;48.994;9.150;2022-12-07T09:53:24;9.60;;;6.18;;
17753;SDS011;8999;48.994;9.150;2022-12-07T09:55:58;8.43;;;5.83;;
17753;SDS011;8999;48.994;9.150;2022-12-07T09:58:30;9.57;;;5.57;;
17753;SDS011;8999;48.994;9.150;2022-12-07T10:01:08;7.27;;;5.03;;
17753;SDS011;8999;48.994;9.150;2022-12-07T10:03:47;10.27;;;6.67;;
17753;SDS011;8999;48.994;9.150;2022-12-07T10:06:20;8.73;;;5.20;;
17753;SDS011;8999;48.994;9.150;2022-12-07T10:08:54;6.70;;;4.43;;
17753;SDS011;8999;48.994;9.150;2022-12-07T10:11:25;5.93;;;3.73;;
17753;SDS011;8999;48.994;9.150;2022-12-07T10:14:09;5.50;;;3.70;;
17753;SDS011;8999;48.994;9.150;2022-12-07T10:16:43;4.87;;;3.63;;
17753;SDS011;8999;48.994;9.150;2022-12-07T10:19:19;5.43;;;4.07;;
17753;SDS011;8999;48.994;9.150;2022-12-07T10:22:01;7.50;;;4.40;;
17753;SDS011;8999;48.994;9.150;2022-12-07T10:24:35;7.10;;;4.70;;
17753;SDS011;8999;48.994;9.150;2022-12-07T10:30:01;7.20;;;4.17;;
17753;SDS011;8999;48.994;9.150;2022-12-07T10:32:39;7.60;;;4.53;;
17753;SDS011;8999;48.994;9.150;2022-12-07T10:35:18;8.97;;;4.33;;
17753;SDS011;8999;48.994;9.150;2022-12-07T10:37:52;8.00;;;4.43;;
17753;SDS011;8999;48.994;9.150;2022-12-07T10:40:33;7.10;;;4.40;;
17753;SDS011;8999;48.994;9.150;2022-12-07T10:43:13;6.00;;;4.10;;
17753;SDS011;8999;48.994;9.150;2022-12-07T10:46:05;6.80;;;4.50;;
17753;SDS011;8999;48.994;9.150;2022-12-07T10:48:43;7.97;;;4.90;;
17753;SDS011;8999;48.994;9.150;2022-12-07T10:51:19;7.97;;;5.20;;
17753;SDS011;8999;48.994;9.150;2022-12-07T10:53:58;7.70;;;4.77;;
17753;SDS011;8999;48.994;9.150;2022-12-07T10:56:45;7.47;;;4.93;;
17753;SDS011;8999;48.994;9.150;2022-12-07T10:59:27;8.80;;;5.27;;
17753;SDS011;8999;48.994;9.150;2022-12-07T11:02:20;8.17;;;5.30;;
17753;SDS011;8999;48.994;9.150;2022-12-07T11:05:03;7.40;;;5.30;;
17753;SDS011;8999;48.994;9.150;2022-12-07T11:07:43;10.67;;;5.27;;
17753;SDS011;8999;48.994;9.150;2022-12-07T11:10:21;6.60;;;4.83;;
17753;SDS011;8999;48.994;9.150;2022-12-07T11:13:04;9.90;;;5.90;;
17753;SDS011;8999;48.994;9.150;2022-12-07T11:15:48;7.90;;;5.77;;
17753;SDS011;8999;48.994;9.150;2022-12-07T11:18:27;10.67;;;6.50;;
17753;SDS011;8999;48.994;9.150;2022-12-07T11:21:06;8.83;;;6.27;;
17753;SDS011;8999;48.994;9.150;2022-12-07T11:23:45;8.77;;;6.53;;
17753;SDS011;8999;48.994;9.150;2022-12-07T11:26:26;9.90;;;6.23;;
17753;SDS011;8999;48.994;9.150;2022-12-07T11:29:28;11.30;;;6.70;;
17753;SDS011;8999;48.994;9.150;2022-12-07T11:32:14;10.67;;;6.47;;
17753;SDS011;8999;48.994;9.150;2022-12-07T11:34:52;11.20;;;7.47;;
17753;SDS011;8999;48.994;9.150;2022-12-07T11:37:30;16.20;;;9.03;;
17753;SDS011;8999;48.994;9.150;2022-12-07T11:40:03;11.10;;;6.43;;
17753;SDS011;8999;48.994;9.150;2022-12-07T11:42:44;11.43;;;7.43;;
17753;SDS011;8999;48.994;9.150;2022-12-07T11:45:22;10.90;;;6.82;;
17753;SDS011;8999;48.994;9.150;2022-12-07T11:47:57;12.70;;;7.28;;
17753;SDS011;8999;48.994;9.150;2022-12-07T11:50:33;14.23;;;8.20;;
17753;SDS011;8999;48.994;9.150;2022-12-07T11:53:09;11.90;;;7.53;;
17753;SDS011;8999;48.994;9.150;2022-12-07T11:55:43;12.85;;;8.23;;
17753;SDS011;8999;48.994;9.150;2022-12-07T11:58:23;13.82;;;8.20;;
17753;SDS011;8999;48.994;9.150;2022-12-07T12:01:11;14.77;;;8.20;;
17753;SDS011;8999;48.994;9.150;2022-12-07T12:03:50;15.73;;;9.70;;
17753;SDS011;8999;48.994;9.150;2022-12-07T12:06:23;12.00;;;7.70;;
17753;SDS011;8999;48.994;9.150;2022-12-07T12:08:56;10.57;;;7.13;;
17753;SDS011;8999;48.994;9.150;2022-12-07T12:11:39;10.55;;;6.57;;
17753;SDS011;8999;48.994;9.150;2022-12-07T12:20:17;12.35;;;7.30;;
17753;SDS011;8999;48.994;9.150;2022-12-07T12:22:53;11.75;;;7.80;;
17753;SDS011;8999;48.994;9.150;2022-12-07T12:25:27;10.83;;;6.40;;
17753;SDS011;8999;48.994;9.150;2022-12-07T12:28:00;10.23;;;7.10;;
17753;SDS011;8999;48.994;9.150;2022-12-07T12:30:33;11.10;;;7.57;;
17753;SDS011;8999;48.994;9.150;2022-12-07T12:33:12;12.07;;;8.35;;
17753;SDS011;8999;48.994;9.150;2022-12-07T12:35:45;13.07;;;8.85;;
17753;SDS011;8999;48.994;9.150;2022-12-07T12:38:25;13.13;;;9.50;;
17753;SDS011;8999;48.994;9.150;2022-12-07T12:41:00;12.10;;;8.57;;
17753;SDS011;8999;48.994;9.150;2022-12-07T12:43:49;11.00;;;7.97;;
17753;SDS011;8999;48.994;9.150;2022-12-07T12:46:38;16.63;;;11.37;;
17753;SDS011;8999;48.994;9.150;2022-12-07T12:49:33;14.45;;;7.68;;
17753;SDS011;8999;48.994;9.150;2022-12-07T12:55:28;15.93;;;10.13;;
17753;SDS011;8999;48.994;9.150;2022-12-07T13:10:37;11.80;;;8.20;;
17753;SDS011;8999;48.994;9.150;2022-12-07T13:13:30;15.95;;;10.52;;
17753;SDS011;8999;48.994;9.150;2022-12-07T13:22:35;10.07;;;7.13;;
17753;SDS011;8999;48.994;9.150;2022-12-07T13:25:35;10.55;;;7.47;;
17753;SDS011;8999;48.994;9.150;2022-12-07T13:28:11;12.43;;;7.43;;
17753;SDS011;8999;48.994;9.150;2022-12-07T13:31:00;11.32;;;7.30;;
17753;SDS011;8999;48.994;9.150;2022-12-07T13:33:35;11.23;;;7.93;;
17753;SDS011;8999;48.994;9.150;2022-12-07T13:36:10;13.03;;;8.50;;
17753;SDS011;8999;48.994;9.150;2022-12-07T13:38:48;12.80;;;8.73;;
17753;SDS011;8999;48.994;9.150;2022-12-07T13:41:26;11.57;;;7.77;;
17753;SDS011;8999;48.994;9.150;2022-12-07T13:44:00;13.60;;;8.93;;
17753;SDS011;8999;48.994;9.150;2022-12-07T13:46:41;12.63;;;7.93;;
17753;SDS011;8999;48.994;9.150;2022-12-07T13:49:16;11.50;;;8.27;;
17753;SDS011;8999;48.994;9.150;2022-12-07T13:51:50;11.68;;;8.07;;
17753;SDS011;8999;48.994;9.150;2022-12-07T13:54:22;13.53;;;8.40;;
17753;SDS011;8999;48.994;9.150;2022-12-07T13:56:55;13.87;;;9.23;;
17753;SDS011;8999;48.994;9.150;2022-12-07T13:59:26;12.50;;;7.80;;
17753;SDS011;8999;48.994;9.150;2022-12-07T14:02:00;14.47;;;8.47;;
17753;SDS011;8999;48.994;9.150;2022-12-07T14:04:33;14.70;;;8.73;;
17753;SDS011;8999;48.994;9.150;2022-12-07T14:07:23;14.43;;;9.43;;
17753;SDS011;8999;48.994;9.150;2022-12-07T14:09:57;17.63;;;9.47;;
17753;SDS011;8999;48.994;9.150;2022-12-07T14:12:32;17.00;;;10.37;;
17753;SDS011;8999;48.994;9.150;2022-12-07T14:15:15;15.77;;;10.37;;
17753;SDS011;8999;48.994;9.150;2022-12-07T14:17:51;13.50;;;9.17;;
17753;SDS011;8999;48.994;9.150;2022-12-07T14:20:28;14.40;;;8.87;;
17753;SDS011;8999;48.994;9.150;2022-12-07T14:23:01;16.43;;;9.57;;
17753;SDS011;8999;48.994;9.150;2022-12-07T14:25:44;12.83;;;8.50;;
17753;SDS011;8999;48.994;9.150;2022-12-07T14:28:26;15.30;;;10.17;;
17753;SDS011;8999;48.994;9.150;2022-12-07T14:30:59;16.17;;;9.47;;
17753;SDS011;8999;48.994;9.150;2022-12-07T14:33:32;14.97;;;9.87;;
17753;SDS011;8999;48.994;9.150;2022-12-07T14:36:03;16.23;;;10.23;;
17753;SDS011;8999;48.994;9.150;2022-12-07T14:38:35;15.83;;;9.27;;
17753;SDS011;8999;48.994;9.150;2022-12-07T14:41:10;17.10;;;9.57;;
17753;SDS011;8999;48.994;9.150;2022-12-07T14:44:07;16.50;;;10.30;;
17753;SDS011;8999;48.994;9.150;2022-12-07T14:46:40;16.67;;;9.93;;
17753;SDS011;8999;48.994;9.150;2022-12-07T14:49:12;16.67;;;9.53;;
17753;SDS011;8999;48.994;9.150;2022-12-07T14:51:44;18.27;;;10.30;;
17753;SDS011;8999;48.994;9.150;2022-12-07T14:54:16;18.33;;;10.60;;
17753;SDS011;8999;48.994;9.150;2022-12-07T14:56:49;20.03;;;11.63;;
17753;SDS011;8999;48.994;9.150;2022-12-07T14:59:22;18.33;;;10.87;;
17753;SDS011;8999;48.994;9.150;2022-12-07T15:01:54;17.40;;;11.07;;
17753;SDS011;8999;48.994;9.150;2022-12-07T15:04:26;15.53;;;10.27;;
17753;SDS011;8999;48.994;9.150;2022-12-07T15:06:58;16.50;;;10.47;;
17753;SDS011;8999;48.994;9.150;2022-12-07T15:09:30;16.67;;;10.37;;
17753;SDS011;8999;48.994;9.150;2022-12-07T15:12:02;19.37;;;11.27;;
17753;SDS011;8999;48.994;9.150;2022-12-07T15:14:35;16.30;;;10.83;;
17753;SDS011;8999;48.994;9.150;2022-12-07T15:17:08;19.33;;;12.73;;
17753;SDS011;8999;48.994;9.150;2022-12-07T15:19:41;24.87;;;13.00;;
17753;SDS011;8999;48.994;9.150;2022-12-07T15:22:12;17.93;;;11.53;;
17753;SDS011;8999;48.994;9.150;2022-12-07T15:24:44;21.20;;;12.03;;
17753;SDS011;8999;48.994;9.150;2022-12-07T15:27:16;21.00;;;12.83;;
17753;SDS011;8999;48.994;9.150;2022-12-07T15:29:49;21.73;;;13.70;;
17753;SDS011;8999;48.994;9.150;2022-12-07T15:32:20;22.40;;;12.60;;
17753;SDS011;8999;48.994;9.150;2022-12-07T15:34:52;22.13;;;13.23;;
17753;SDS011;8999;48.994;9.150;2022-12-07T15:37:24;24.07;;;13.73;;
17753;SDS011;8999;48.994;9.150;2022-12-07T15:39:56;21.07;;;13.33;;
17753;SDS011;8999;48.994;9.150;2022-12-07T15:42:27;21.93;;;12.73;;
17753;SDS011;8999;48.994;9.150;2022-12-07T15:45:00;20.83;;;12.40;;
17753;SDS011;8999;48.994;9.150;2022-12-07T15:47:35;19.40;;;11.77;;
17753;SDS011;8999;48.994;9.150;2022-12-07T15:50:09;24.77;;;12.10;;
17753;SDS011;8999;48.994;9.150;2022-12-07T15:52:43;46.00;;;24.03;;
17753;SDS011;8999;48.994;9.150;2022-12-07T15:55:15;22.60;;;13.37;;
17753;SDS011;8999;48.994;9.150;2022-12-07T15:57:46;20.10;;;12.00;;
17753;SDS011;8999;48.994;9.150;2022-12-07T16:00:21;21.07;;;13.50;;